createdAt,value
2019-05-15T00:00:19.535Z,7.05
2019-05-15T00:05:32.959Z,7.85
2019-05-15T00:10:39.980Z,7.67
2019-05-15T00:15:48.000Z,7.85
2019-05-15T00:20:52.584Z,7.42
2019-05-15T00:25:58.761Z,7.95
2019-05-15T00:31:09.090Z,7.92
2019-05-15T00:36:15.019Z,7.53
2019-05-15T00:41:19.748Z,7.50
2019-05-15T00:46:28.894Z,8.50
2019-05-15T00:51:30.609Z,8.85
2019-05-15T00:56:35.112Z,7.85
2019-05-15T01:01:40.327Z,8.33
2019-05-15T01:06:50.872Z,8.20
2019-05-15T01:11:58.721Z,8.63
2019-05-15T01:17:08.845Z,8.45
2019-05-15T01:22:14.033Z,8.28
2019-05-15T01:27:19.271Z,8.60
2019-05-15T01:32:25.300Z,8.70
2019-05-15T01:37:29.880Z,8.63
2019-05-15T01:42:34.428Z,8.55
2019-05-15T01:47:39.212Z,8.63
2019-05-15T01:52:43.864Z,9.53
2019-05-15T01:57:49.104Z,9.13
2019-05-15T02:02:53.763Z,9.03
2019-05-15T02:07:59.752Z,8.90
2019-05-15T02:13:04.291Z,8.80
2019-05-15T02:18:08.810Z,9.33
2019-05-15T02:23:13.402Z,9.60
2019-05-15T02:28:19.796Z,9.60
2019-05-15T02:33:25.953Z,9.70
2019-05-15T02:38:33.841Z,9.55
2019-05-15T02:43:39.265Z,10.30
2019-05-15T02:48:48.671Z,10.23
2019-05-15T02:53:51.895Z,10.28
2019-05-15T02:58:59.877Z,10.75
2019-05-15T03:04:09.045Z,10.90
2019-05-15T03:09:12.174Z,10.18
2019-05-15T03:14:23.676Z,10.98
2019-05-15T03:19:29.889Z,10.50
2019-05-15T03:24:34.784Z,11.45
2019-05-15T03:29:53.825Z,11.12
2019-05-15T03:35:04.917Z,11.03
2019-05-15T03:40:10.843Z,11.10
2019-05-15T03:45:14.856Z,11.20
2019-05-15T03:50:19.679Z,11.45
2019-05-15T03:55:29.511Z,11.45
2019-05-15T04:00:49.554Z,11.12
2019-05-15T04:05:50.713Z,11.85
2019-05-15T04:10:59.426Z,13.25
2019-05-15T04:16:02.784Z,13.05
2019-05-15T04:21:09.577Z,12.03
2019-05-15T04:26:14.908Z,12.33
2019-05-15T04:31:19.647Z,11.55
2019-05-15T04:36:24.778Z,12.15
2019-05-15T04:41:33.086Z,12.18
2019-05-15T04:46:39.361Z,11.93
2019-05-15T04:51:43.937Z,12.05
2019-05-15T04:56:49.046Z,11.65
2019-05-15T05:02:13.018Z,11.70
2019-05-15T05:07:00.315Z,11.65
2019-05-15T05:12:04.899Z,10.68
2019-05-15T05:17:09.625Z,11.60
2019-05-15T05:22:14.241Z,10.10
2019-05-15T05:27:18.637Z,10.05
2019-05-15T05:32:34.284Z,10.80
2019-05-15T05:37:29.297Z,10.63
2019-05-15T05:42:33.954Z,10.08
2019-05-15T05:47:38.574Z,10.10
2019-05-15T05:52:43.157Z,9.85
2019-05-15T05:57:48.698Z,10.10
2019-05-15T06:02:53.304Z,9.18
2019-05-15T06:07:58.218Z,9.33
2019-05-15T06:13:02.810Z,9.20
2019-05-15T06:18:08.306Z,9.55
2019-05-15T06:23:12.903Z,9.68
2019-05-15T06:28:19.521Z,8.98
2019-05-15T06:33:23.456Z,8.95
2019-05-15T06:38:30.863Z,8.20
2019-05-15T06:43:58.722Z,9.88
2019-05-15T06:49:02.644Z,8.23
2019-05-15T06:54:08.763Z,8.88
2019-05-15T06:59:13.340Z,8.15
2019-05-15T07:04:18.160Z,8.60
2019-05-15T07:09:22.927Z,8.50
2019-05-15T07:14:28.835Z,8.53
2019-05-15T07:19:33.391Z,7.97
2019-05-15T07:24:39.417Z,7.85
2019-05-15T07:29:43.813Z,7.00
2019-05-15T07:34:48.444Z,6.30
2019-05-15T07:39:52.913Z,7.08
2019-05-15T07:44:58.864Z,5.87
2019-05-15T07:50:08.836Z,5.58
2019-05-15T07:55:13.846Z,5.50
2019-05-15T08:00:20.073Z,5.30
2019-05-15T08:05:24.666Z,5.28
2019-05-15T08:10:29.180Z,4.65
2019-05-15T08:15:33.746Z,5.10
2019-05-15T08:20:38.589Z,4.47
2019-05-15T08:25:43.118Z,4.53
2019-05-15T08:30:49.323Z,4.50
2019-05-15T08:35:55.139Z,4.10
2019-05-15T08:40:59.540Z,3.90
2019-05-15T08:46:03.954Z,3.90
2019-05-15T08:51:08.884Z,4.10
2019-05-15T08:56:14.824Z,3.92
2019-05-15T09:01:19.428Z,3.92
2019-05-15T09:06:23.823Z,3.60
2019-05-15T09:11:28.452Z,3.75
2019-05-15T09:16:32.908Z,3.22
2019-05-15T09:21:38.811Z,3.20
2019-05-15T09:26:43.414Z,3.02
2019-05-15T09:31:48.399Z,3.05
2019-05-15T09:36:54.513Z,2.90
2019-05-15T09:41:59.238Z,2.90
2019-05-15T09:47:09.170Z,2.70
2019-05-15T09:52:13.718Z,2.80
2019-05-15T09:57:18.759Z,2.40
2019-05-15T10:02:23.365Z,3.00
2019-05-15T10:07:28.592Z,2.70
2019-05-15T10:12:35.131Z,2.70
2019-05-15T10:17:39.323Z,2.92
2019-05-15T10:22:44.125Z,2.60
2019-05-15T10:27:48.948Z,2.42
2019-05-15T10:32:53.485Z,2.60
2019-05-15T10:37:59.226Z,2.22
2019-05-15T10:43:03.931Z,2.37
2019-05-15T10:48:09.398Z,2.20
2019-05-15T10:53:14.675Z,1.92
2019-05-15T10:58:22.184Z,2.30
2019-05-15T11:03:25.248Z,2.42
2019-05-15T11:08:29.649Z,2.00
2019-05-15T11:13:34.212Z,2.25
2019-05-15T11:18:53.528Z,2.22
2019-05-15T11:23:59.110Z,2.35
2019-05-15T11:29:03.666Z,2.60
2019-05-15T11:34:09.381Z,1.90
2019-05-15T11:39:13.975Z,2.60
2019-05-15T11:44:18.848Z,2.08
2019-05-15T11:49:23.269Z,2.17
2019-05-15T11:54:28.296Z,1.82
2019-05-15T11:59:32.839Z,2.50
2019-05-15T12:04:38.449Z,2.20
2019-05-15T12:09:42.963Z,1.95
2019-05-15T12:14:49.406Z,2.02
2019-05-15T12:19:56.772Z,2.20
2019-05-15T12:25:00.455Z,2.12
2019-05-15T12:30:13.659Z,1.98
2019-05-15T12:35:20.396Z,2.27
2019-05-15T13:00:53.699Z,2.98
2019-05-15T13:05:58.124Z,3.12
2019-05-15T13:11:02.692Z,3.08
2019-05-15T13:16:07.175Z,2.30
2019-05-15T13:21:11.659Z,2.70
2019-05-15T13:26:23.680Z,2.47
2019-05-15T13:31:22.173Z,2.80
2019-05-15T13:36:28.850Z,2.80
2019-05-15T13:41:32.797Z,2.90
2019-05-15T13:46:38.825Z,2.62
2019-05-15T13:51:45.062Z,3.00
2019-05-15T13:56:49.563Z,3.08
2019-05-15T14:01:54.018Z,2.65
2019-05-15T14:06:58.389Z,2.45
2019-05-15T14:12:02.780Z,2.90
2019-05-15T14:17:09.278Z,2.70
2019-05-15T14:22:13.348Z,3.30
2019-05-15T14:27:19.520Z,2.67
2019-05-15T14:32:35.531Z,2.95
2019-05-15T14:37:30.015Z,3.33
2019-05-15T14:42:34.409Z,2.90
2019-05-15T14:47:39.820Z,3.40
2019-05-15T14:52:44.227Z,3.62
2019-05-15T14:57:48.997Z,3.33
2019-05-15T15:02:53.648Z,4.10
2019-05-15T15:07:58.657Z,4.50
2019-05-15T15:13:03.299Z,4.97
2019-05-15T15:18:08.412Z,3.92
2019-05-15T15:23:13.067Z,3.70
2019-05-15T15:28:18.891Z,3.30
2019-05-15T15:33:23.577Z,4.60
2019-05-15T15:38:40.248Z,4.05
2019-05-15T15:43:34.313Z,3.60
2019-05-15T15:48:39.209Z,3.60
2019-05-15T15:53:43.822Z,3.65
2019-05-15T15:58:48.748Z,4.17
2019-05-15T16:03:53.699Z,3.58
2019-05-15T16:08:59.542Z,3.30
2019-05-15T16:14:04.601Z,3.02
2019-05-15T16:19:09.079Z,3.15
2019-05-15T16:24:17.680Z,3.72
2019-05-15T16:29:19.884Z,2.90
2019-05-15T16:34:24.354Z,3.25
2019-05-15T16:39:28.831Z,3.90
2019-05-15T16:44:33.289Z,2.98
2019-05-15T16:49:39.087Z,3.17
2019-05-15T16:54:43.777Z,3.08
2019-05-15T16:59:48.226Z,4.70
2019-05-15T17:04:52.860Z,4.45
2019-05-15T17:09:58.578Z,3.77
2019-05-15T17:15:03.395Z,3.92
2019-05-15T17:20:11.333Z,3.60
2019-05-15T17:25:18.157Z,4.20
2019-05-15T17:30:25.362Z,5.92
2019-05-15T17:35:29.765Z,4.20
2019-05-15T17:40:34.297Z,3.50
2019-05-15T17:45:39.264Z,3.30
2019-05-15T17:50:49.012Z,7.37
2019-05-15T17:55:49.879Z,3.45
2019-05-15T18:00:54.358Z,3.50
2019-05-15T18:05:59.399Z,3.20
2019-05-15T18:11:03.907Z,3.10
2019-05-15T18:16:13.390Z,2.77
2019-05-15T18:21:14.555Z,4.28
2019-05-15T18:26:19.193Z,3.10
2019-05-15T18:31:23.698Z,3.60
2019-05-15T18:36:28.498Z,3.47
2019-05-15T18:41:34.755Z,3.40
2019-05-15T18:46:39.218Z,3.50
2019-05-15T18:51:43.916Z,6.00
2019-05-15T18:56:48.969Z,3.27
2019-05-15T19:01:53.816Z,5.03
2019-05-15T19:06:58.408Z,4.67
2019-05-15T19:12:02.911Z,5.90
2019-05-15T19:17:08.213Z,4.22
2019-05-15T19:22:12.806Z,7.67
2019-05-15T19:27:18.752Z,8.40
2019-05-15T19:32:23.492Z,9.43
2019-05-15T19:37:28.759Z,11.75
2019-05-15T19:42:59.106Z,5.72
2019-05-15T19:48:26.439Z,5.60
2019-05-15T19:53:36.869Z,6.75
2019-05-15T19:58:53.025Z,10.65
2019-05-15T20:04:08.782Z,12.00
2019-05-15T20:09:14.390Z,14.68
2019-05-15T20:14:30.666Z,5.80
2019-05-15T20:19:39.427Z,8.85
2019-05-15T20:25:10.144Z,7.75
2019-05-15T20:30:19.666Z,4.75
2019-05-15T20:35:28.391Z,4.43
2019-05-15T20:40:35.966Z,6.20
2019-05-15T20:50:59.184Z,6.65
2019-05-15T20:56:05.303Z,7.42
2019-05-15T21:01:10.765Z,13.53
2019-05-15T21:06:17.741Z,4.72
2019-05-15T21:11:22.746Z,5.12
2019-05-15T21:16:28.046Z,7.60
2019-05-15T21:21:35.750Z,5.83
2019-05-15T21:26:42.170Z,5.10
2019-05-15T21:31:49.678Z,4.30
2019-05-15T21:36:59.076Z,4.20
2019-05-15T21:42:08.850Z,4.25
2019-05-15T21:47:22.944Z,4.25
2019-05-15T21:52:39.200Z,4.90
2019-05-15T21:57:45.164Z,4.58
2019-05-15T22:02:50.004Z,4.33
2019-05-15T22:07:58.487Z,4.60
2019-05-15T22:13:05.235Z,4.15
2019-05-15T22:18:11.491Z,4.53
2019-05-15T22:23:19.622Z,4.45
2019-05-15T22:28:28.217Z,5.12
2019-05-15T22:33:32.384Z,4.55
2019-05-15T22:38:38.464Z,4.87
2019-05-15T22:43:43.134Z,4.58
2019-05-15T22:48:50.538Z,4.60
2019-05-15T22:53:55.500Z,4.00
2019-05-15T22:59:01.234Z,4.40
2019-05-15T23:04:05.846Z,4.37
2019-05-15T23:09:13.899Z,5.28
2019-05-15T23:14:18.688Z,4.50
2019-05-15T23:19:23.203Z,4.20
2019-05-15T23:24:28.234Z,5.05
2019-05-15T23:29:32.958Z,5.60
2019-05-15T23:34:38.818Z,5.60
2019-05-15T23:39:48.561Z,5.67
2019-05-15T23:44:53.540Z,5.58
2019-05-15T23:49:58.150Z,6.62
2019-05-15T23:55:08.616Z,6.37
